sensor_id;sensor_type;location;lat;lon;timestamp;pressure;altitude;pressure_sealevel;temperature;humidity
20077;BME280;12348;42.710;23.378;2023-04-03T00:00:29;94533.66;;;5.84;100.00
20077;BME280;12348;42.710;23.378;2023-04-03T00:02:57;94532.13;;;5.68;100.00
20077;BME280;12348;42.710;23.378;2023-04-03T00:05:23;94539.63;;;5.55;100.00
20077;BME280;12348;42.710;23.378;2023-04-03T00:07:50;94542.09;;;5.42;100.00
20077;BME280;12348;42.710;23.378;2023-04-03T00:10:19;94532.22;;;5.32;100.00
20077;BME280;12348;42.710;23.378;2023-04-03T00:12:46;94534.09;;;5.26;100.00
20077;BME280;12348;42.710;23.378;2023-04-03T00:15:13;94526.91;;;5.22;100.00
20077;BME280;12348;42.710;23.378;2023-04-03T00:17:39;94528.53;;;5.18;100.00
20077;BME280;12348;42.710;23.378;2023-04-03T00:20:07;94519.72;;;5.27;100.00
20077;BME280;12348;42.710;23.378;2023-04-03T00:22:34;94510.31;;;5.45;100.00
20077;BME280;12348;42.710;23.378;2023-04-03T00:25:01;94511.91;;;5.41;100.00
20077;BME280;12348;42.710;23.378;2023-04-03T00:27:29;94512.75;;;5.26;100.00
20077;BME280;12348;42.710;23.378;2023-04-03T00:29:56;94518.09;;;5.26;100.00
20077;BME280;12348;42.710;23.378;2023-04-03T00:32:23;94515.72;;;5.15;100.00
20077;BME280;12348;42.710;23.378;2023-04-03T00:34:50;94519.97;;;5.21;100.00
20077;BME280;12348;42.710;23.378;2023-04-03T00:37:16;94521.06;;;5.20;100.00
20077;BME280;12348;42.710;23.378;2023-04-03T00:39:43;94522.66;;;5.10;100.00
20077;BME280;12348;42.710;23.378;2023-04-03T00:42:10;94522.66;;;5.00;100.00
20077;BME280;12348;42.710;23.378;2023-04-03T00:47:43;94528.31;;;4.94;100.00
20077;BME280;12348;42.710;23.378;2023-04-03T00:50:10;94528.06;;;4.75;100.00
20077;BME280;12348;42.710;23.378;2023-04-03T00:52:37;94524.34;;;4.71;100.00
20077;BME280;12348;42.710;23.378;2023-04-03T00:55:07;94525.66;;;4.63;100.00
20077;BME280;12348;42.710;23.378;2023-04-03T00:57:37;94522.97;;;4.73;100.00
20077;BME280;12348;42.710;23.378;2023-04-03T01:00:07;94523.78;;;4.74;100.00
20077;BME280;12348;42.710;23.378;2023-04-03T01:02:35;94526.97;;;4.76;100.00
20077;BME280;12348;42.710;23.378;2023-04-03T01:05:04;94528.03;;;4.85;100.00
20077;BME280;12348;42.710;23.378;2023-04-03T01:07:32;94526.69;;;4.77;100.00
20077;BME280;12348;42.710;23.378;2023-04-03T01:10:04;94523.78;;;4.79;100.00
20077;BME280;12348;42.710;23.378;2023-04-03T01:12:35;94531.53;;;4.85;100.00
20077;BME280;12348;42.710;23.378;2023-04-03T01:15:05;94527.50;;;4.98;100.00
20077;BME280;12348;42.710;23.378;2023-04-03T01:17:33;94527.78;;;4.86;100.00
20077;BME280;12348;42.710;23.378;2023-04-03T01:20:40;94524.06;;;4.82;100.00
20077;BME280;12348;42.710;23.378;2023-04-03T01:23:22;94528.28;;;4.89;100.00
20077;BME280;12348;42.710;23.378;2023-04-03T01:25:53;94523.78;;;4.74;100.00
20077;BME280;12348;42.710;23.378;2023-04-03T01:28:22;94528.59;;;4.82;100.00
20077;BME280;12348;42.710;23.378;2023-04-03T01:30:55;94529.66;;;4.76;100.00
20077;BME280;12348;42.710;23.378;2023-04-03T01:33:26;94529.41;;;4.67;100.00
20077;BME280;12348;42.710;23.378;2023-04-03T01:35:53;94529.66;;;4.66;100.00
20077;BME280;12348;42.710;23.378;2023-04-03T01:38:20;94526.97;;;4.50;100.00
20077;BME280;12348;42.710;23.378;2023-04-03T01:40:47;94529.13;;;4.38;100.00
20077;BME280;12348;42.710;23.378;2023-04-03T01:43:13;94528.56;;;4.26;100.00
20077;BME280;12348;42.710;23.378;2023-04-03T01:45:40;94522.69;;;4.19;100.00
20077;BME280;12348;42.710;23.378;2023-04-03T01:48:07;94533.34;;;4.03;100.00
20077;BME280;12348;42.710;23.378;2023-04-03T01:50:35;94532.75;;;3.91;100.00
20077;BME280;12348;42.710;23.378;2023-04-03T01:53:02;94533.25;;;3.83;100.00
20077;BME280;12348;42.710;23.378;2023-04-03T01:55:29;94533.50;;;3.71;100.00
20077;BME280;12348;42.710;23.378;2023-04-03T01:57:56;94537.19;;;3.65;100.00
20077;BME280;12348;42.710;23.378;2023-04-03T02:00:22;94538.66;;;4.03;100.00
20077;BME280;12348;42.710;23.378;2023-04-03T02:02:49;94543.16;;;4.03;100.00
20077;BME280;12348;42.710;23.378;2023-04-03T02:05:16;94540.69;;;3.81;100.00
20077;BME280;12348;42.710;23.378;2023-04-03T02:07:45;94542.00;;;3.63;100.00
20077;BME280;12348;42.710;23.378;2023-04-03T02:10:12;94540.06;;;3.53;100.00
20077;BME280;12348;42.710;23.378;2023-04-03T02:12:39;94544.81;;;3.46;100.00
20077;BME280;12348;42.710;23.378;2023-04-03T02:15:07;94537.63;;;3.42;100.00
20077;BME280;12348;42.710;23.378;2023-04-03T02:17:35;94542.31;;;3.19;100.00
20077;BME280;12348;42.710;23.378;2023-04-03T02:20:02;94537.78;;;3.25;100.00
20077;BME280;12348;42.710;23.378;2023-04-03T02:22:29;94530.00;;;3.60;100.00
20077;BME280;12348;42.710;23.378;2023-04-03T02:24:58;94527.00;;;3.47;100.00
20077;BME280;12348;42.710;23.378;2023-04-03T02:27:24;94528.56;;;3.37;100.00
20077;BME280;12348;42.710;23.378;2023-04-03T02:29:51;94524.59;;;3.40;100.00
20077;BME280;12348;42.710;23.378;2023-04-03T02:32:18;94517.75;;;3.70;100.00
20077;BME280;12348;42.710;23.378;2023-04-03T02:34:45;94519.13;;;3.72;100.00
20077;BME280;12348;42.710;23.378;2023-04-03T02:37:12;94517.84;;;3.90;100.00
20077;BME280;12348;42.710;23.378;2023-04-03T02:39:39;94509.84;;;3.95;100.00
20077;BME280;12348;42.710;23.378;2023-04-03T02:42:07;94508.53;;;3.93;100.00
20077;BME280;12348;42.710;23.378;2023-04-03T02:44:34;94509.84;;;3.90;100.00
20077;BME280;12348;42.710;23.378;2023-04-03T02:47:01;94511.41;;;3.81;100.00
20077;BME280;12348;42.710;23.378;2023-04-03T02:49:28;94515.66;;;3.77;100.00
20077;BME280;12348;42.710;23.378;2023-04-03T02:51:55;94511.38;;;3.65;100.00
20077;BME280;12348;42.710;23.378;2023-04-03T02:54:22;94518.25;;;3.56;100.00
20077;BME280;12348;42.710;23.378;2023-04-03T02:56:53;94516.91;;;3.54;100.00
20077;BME280;12348;42.710;23.378;2023-04-03T02:59:21;94507.91;;;3.60;100.00
20077;BME280;12348;42.710;23.378;2023-04-03T03:01:48;94504.94;;;3.51;100.00
20077;BME280;12348;42.710;23.378;2023-04-03T03:04:15;94505.47;;;3.48;100.00
20077;BME280;12348;42.710;23.378;2023-04-03T03:06:42;94508.41;;;3.52;100.00
20077;BME280;12348;42.710;23.378;2023-04-03T03:09:09;94504.09;;;3.40;100.00
20077;BME280;12348;42.710;23.378;2023-04-03T03:11:36;94507.94;;;3.75;100.00
20077;BME280;12348;42.710;23.378;2023-04-03T03:14:03;94498.69;;;3.98;100.00
20077;BME280;12348;42.710;23.378;2023-04-03T03:16:31;94503.69;;;3.79;100.00
20077;BME280;12348;42.710;23.378;2023-04-03T03:18:58;94501.50;;;3.61;100.00
20077;BME280;12348;42.710;23.378;2023-04-03T03:21:25;94501.19;;;3.47;100.00
20077;BME280;12348;42.710;23.378;2023-04-03T03:23:51;94503.38;;;3.60;100.00
20077;BME280;12348;42.710;23.378;2023-04-03T03:26:18;94493.56;;;3.71;100.00
20077;BME280;12348;42.710;23.378;2023-04-03T03:28:45;94498.66;;;3.83;100.00
20077;BME280;12348;42.710;23.378;2023-04-03T03:31:12;94498.34;;;3.69;100.00
20077;BME280;12348;42.710;23.378;2023-04-03T03:33:40;94498.03;;;3.60;100.00
20077;BME280;12348;42.710;23.378;2023-04-03T03:36:07;94497.84;;;3.77;100.00
20077;BME280;12348;42.710;23.378;2023-04-03T03:38:34;94496.50;;;3.75;100.00
20077;BME280;12348;42.710;23.378;2023-04-03T03:41:01;94503.03;;;3.47;100.00
20077;BME280;12348;42.710;23.378;2023-04-03T03:43:28;94507.53;;;3.36;100.00
20077;BME280;12348;42.710;23.378;2023-04-03T03:45:55;94513.94;;;3.40;100.00
20077;BME280;12348;42.710;23.378;2023-04-03T03:48:23;94506.97;;;3.29;100.00
20077;BME280;12348;42.710;23.378;2023-04-03T03:50:53;94500.59;;;3.30;100.00
20077;BME280;12348;42.710;23.378;2023-04-03T03:53:20;94504.56;;;3.22;100.00
20077;BME280;12348;42.710;23.378;2023-04-03T03:55:47;94502.13;;;3.15;100.00
20077;BME280;12348;42.710;23.378;2023-04-03T03:58:13;94510.09;;;3.10;100.00
20077;BME280;12348;42.710;23.378;2023-04-03T04:00:40;94504.47;;;3.07;100.00
20077;BME280;12348;42.710;23.378;2023-04-03T04:03:07;94498.91;;;3.13;100.00
20077;BME280;12348;42.710;23.378;2023-04-03T04:05:34;94499.47;;;3.15;100.00
20077;BME280;12348;42.710;23.378;2023-04-03T04:08:02;94495.22;;;3.25;100.00
20077;BME280;12348;42.710;23.378;2023-04-03T04:10:29;94496.84;;;3.26;100.00
20077;BME280;12348;42.710;23.378;2023-04-03T04:12:56;94498.28;;;3.44;100.00
20077;BME280;12348;42.710;23.378;2023-04-03T04:15:22;94493.41;;;3.30;100.00
20077;BME280;12348;42.710;23.378;2023-04-03T04:17:51;94496.34;;;3.34;100.00
20077;BME280;12348;42.710;23.378;2023-04-03T04:20:18;94517.09;;;3.32;100.00
20077;BME280;12348;42.710;23.378;2023-04-03T04:22:45;94518.78;;;3.48;100.00
20077;BME280;12348;42.710;23.378;2023-04-03T04:25:13;94522.50;;;3.52;100.00
20077;BME280;12348;42.710;23.378;2023-04-03T04:27:40;94520.66;;;3.58;100.00
20077;BME280;12348;42.710;23.378;2023-04-03T04:30:08;94523.63;;;3.72;100.00
20077;BME280;12348;42.710;23.378;2023-04-03T04:32:35;94523.66;;;3.77;100.00
20077;BME280;12348;42.710;23.378;2023-04-03T04:35:03;94529.53;;;3.84;100.00
20077;BME280;12348;42.710;23.378;2023-04-03T04:37:30;94524.72;;;3.76;100.00
20077;BME280;12348;42.710;23.378;2023-04-03T04:39:57;94528.41;;;3.70;100.00
20077;BME280;12348;42.710;23.378;2023-04-03T04:42:25;94530.03;;;3.71;100.00
20077;BME280;12348;42.710;23.378;2023-04-03T04:44:52;94531.63;;;3.72;100.00
20077;BME280;12348;42.710;23.378;2023-04-03T04:47:19;94530.56;;;3.73;100.00
20077;BME280;12348;42.710;23.378;2023-04-03T04:49:45;94530.41;;;4.05;100.00
20077;BME280;12348;42.710;23.378;2023-04-03T04:52:13;94534.41;;;4.12;100.00
20077;BME280;12348;42.710;23.378;2023-04-03T04:54:40;94547.22;;;4.36;100.00
20077;BME280;12348;42.710;23.378;2023-04-03T04:57:07;94544.56;;;4.31;100.00
20077;BME280;12348;42.710;23.378;2023-04-03T04:59:35;94538.44;;;4.41;100.00
20077;BME280;12348;42.710;23.378;2023-04-03T05:02:02;94542.97;;;4.50;100.00
20077;BME280;12348;42.710;23.378;2023-04-03T05:04:29;94542.97;;;4.55;100.00
20077;BME280;12348;42.710;23.378;2023-04-03T05:06:55;94555.78;;;4.58;100.00
20077;BME280;12348;42.710;23.378;2023-04-03T05:09:23;94554.72;;;4.59;100.00
20077;BME280;12348;42.710;23.378;2023-04-03T05:11:50;94561.91;;;4.54;100.00
20077;BME280;12348;42.710;23.378;2023-04-03T05:14:17;94566.16;;;4.55;100.00
20077;BME280;12348;42.710;23.378;2023-04-03T05:16:45;94573.34;;;5.10;100.00
20077;BME280;12348;42.710;23.378;2023-04-03T05:19:13;94574.41;;;5.30;100.00
20077;BME280;12348;42.710;23.378;2023-04-03T05:21:40;94576.78;;;5.37;100.00
20077;BME280;12348;42.710;23.378;2023-04-03T05:24:07;94587.78;;;5.20;100.00
20077;BME280;12348;42.710;23.378;2023-04-03T05:26:34;94587.72;;;5.40;100.00
20077;BME280;12348;42.710;23.378;2023-04-03T05:29:02;94579.09;;;5.79;100.00
20077;BME280;12348;42.710;23.378;2023-04-03T05:31:28;94569.69;;;6.02;100.00
20077;BME280;12348;42.710;23.378;2023-04-03T05:33:57;94571.97;;;6.24;100.00
20077;BME280;12348;42.710;23.378;2023-04-03T05:36:24;94564.81;;;6.59;100.00
20077;BME280;12348;42.710;23.378;2023-04-03T05:38:52;94561.94;;;6.84;100.00
20077;BME280;12348;42.710;23.378;2023-04-03T05:41:19;94559.38;;;7.32;100.00
20077;BME280;12348;42.710;23.378;2023-04-03T05:43:47;94555.59;;;7.62;100.00
20077;BME280;12348;42.710;23.378;2023-04-03T05:46:16;94557.84;;;7.50;100.00
20077;BME280;12348;42.710;23.378;2023-04-03T05:48:43;94560.28;;;7.22;100.00
20077;BME280;12348;42.710;23.378;2023-04-03T05:51:14;94562.88;;;7.27;100.00
20077;BME280;12348;42.710;23.378;2023-04-03T05:53:43;94558.63;;;7.50;100.00
20077;BME280;12348;42.710;23.378;2023-04-03T05:56:10;94553.88;;;7.47;100.00
20077;BME280;12348;42.710;23.378;2023-04-03T05:58:37;94554.19;;;7.65;100.00
20077;BME280;12348;42.710;23.378;2023-04-03T06:01:04;94558.06;;;8.01;100.00
20077;BME280;12348;42.710;23.378;2023-04-03T06:03:31;94548.34;;;8.06;100.00
20077;BME280;12348;42.710;23.378;2023-04-03T06:05:58;94549.97;;;8.07;100.00
20077;BME280;12348;42.710;23.378;2023-04-03T06:08:27;94549.44;;;8.05;100.00
20077;BME280;12348;42.710;23.378;2023-04-03T06:10:53;94545.03;;;8.14;100.00
20077;BME280;12348;42.710;23.378;2023-04-03T06:13:21;94538.88;;;8.32;100.00
20077;BME280;12348;42.710;23.378;2023-04-03T06:15:49;94534.38;;;8.52;100.00
20077;BME280;12348;42.710;23.378;2023-04-03T06:18:15;94532.19;;;8.54;100.00
20077;BME280;12348;42.710;23.378;2023-04-03T06:20:42;94524.22;;;8.81;100.00
20077;BME280;12348;42.710;23.378;2023-04-03T06:23:09;94527.75;;;8.95;100.00
20077;BME280;12348;42.710;23.378;2023-04-03T06:25:37;94527.84;;;9.37;100.00
20077;BME280;12348;42.710;23.378;2023-04-03T06:28:05;94525.53;;;8.84;100.00
20077;BME280;12348;42.710;23.378;2023-04-03T06:30:34;94533.53;;;9.35;100.00
20077;BME280;12348;42.710;23.378;2023-04-03T06:33:02;94546.38;;;9.38;100.00
20077;BME280;12348;42.710;23.378;2023-04-03T06:35:29;94547.66;;;9.41;100.00
20077;BME280;12348;42.710;23.378;2023-04-03T06:37:56;94545.81;;;9.69;100.00
20077;BME280;12348;42.710;23.378;2023-04-03T06:40:24;94555.88;;;9.91;100.00
20077;BME280;12348;42.710;23.378;2023-04-03T06:42:55;94557.19;;;9.33;100.00
20077;BME280;12348;42.710;23.378;2023-04-03T06:45:21;94561.09;;;8.76;100.00
20077;BME280;12348;42.710;23.378;2023-04-03T06:47:50;94567.38;;;8.28;100.00
20077;BME280;12348;42.710;23.378;2023-04-03T06:50:17;94555.13;;;8.22;100.00
20077;BME280;12348;42.710;23.378;2023-04-03T06:52:43;94546.75;;;8.66;100.00
20077;BME280;12348;42.710;23.378;2023-04-03T06:55:11;94539.31;;;8.20;100.00
20077;BME280;12348;42.710;23.378;2023-04-03T06:57:38;94545.94;;;8.66;100.00
20077;BME280;12348;42.710;23.378;2023-04-03T07:00:07;94546.91;;;9.08;100.00
20077;BME280;12348;42.710;23.378;2023-04-03T07:02:35;94555.63;;;9.32;100.00
20077;BME280;12348;42.710;23.378;2023-04-03T07:05:02;94558.63;;;9.58;100.00
20077;BME280;12348;42.710;23.378;2023-04-03T07:07:29;94556.75;;;9.73;100.00
20077;BME280;12348;42.710;23.378;2023-04-03T07:09:57;94548.78;;;9.81;100.00
20077;BME280;12348;42.710;23.378;2023-04-03T07:12:23;94546.78;;;10.01;100.00
20077;BME280;12348;42.710;23.378;2023-04-03T07:14:50;94549.13;;;9.93;100.00
20077;BME280;12348;42.710;23.378;2023-04-03T07:17:18;94542.44;;;10.05;100.00
20077;BME280;12348;42.710;23.378;2023-04-03T07:19:45;94539.59;;;10.37;100.00
20077;BME280;12348;42.710;23.378;2023-04-03T07:22:12;94527.72;;;10.75;100.00
20077;BME280;12348;42.710;23.378;2023-04-03T07:24:39;94533.94;;;11.51;97.09
20077;BME280;12348;42.710;23.378;2023-04-03T07:27:06;94533.81;;;11.87;92.04
20077;BME280;12348;42.710;23.378;2023-04-03T07:29:33;94531.91;;;11.88;92.36
20077;BME280;12348;42.710;23.378;2023-04-03T07:32:00;94535.41;;;11.97;92.20
20077;BME280;12348;42.710;23.378;2023-04-03T07:34:28;94537.84;;;12.25;89.91
20077;BME280;12348;42.710;23.378;2023-04-03T07:36:55;94521.56;;;12.91;85.56
20077;BME280;12348;42.710;23.378;2023-04-03T07:39:23;94524.41;;;13.12;82.44
20077;BME280;12348;42.710;23.378;2023-04-03T07:41:50;94535.28;;;13.58;79.76
20077;BME280;12348;42.710;23.378;2023-04-03T07:44:17;94516.16;;;13.72;77.97
20077;BME280;12348;42.710;23.378;2023-04-03T07:46:43;94527.22;;;13.97;75.68
20077;BME280;12348;42.710;23.378;2023-04-03T07:49:10;94511.69;;;14.36;74.57
20077;BME280;12348;42.710;23.378;2023-04-03T07:51:38;94508.50;;;14.34;73.55
20077;BME280;12348;42.710;23.378;2023-04-03T07:54:06;94492.81;;;14.90;71.30
20077;BME280;12348;42.710;23.378;2023-04-03T07:56:32;94498.84;;;14.74;71.80
20077;BME280;12348;42.710;23.378;2023-04-03T07:58:59;94500.19;;;14.68;71.95
20077;BME280;12348;42.710;23.378;2023-04-03T08:01:26;94494.44;;;14.70;71.83
20077;BME280;12348;42.710;23.378;2023-04-03T08:03:53;94498.94;;;14.66;71.80
20077;BME280;12348;42.710;23.378;2023-04-03T08:06:20;94495.31;;;14.83;72.67
20077;BME280;12348;42.710;23.378;2023-04-03T08:08:49;94482.28;;;14.55;72.74
20077;BME280;12348;42.710;23.378;2023-04-03T08:11:15;94490.31;;;14.43;73.19
20077;BME280;12348;42.710;23.378;2023-04-03T08:13:44;94484.25;;;13.87;75.37
20077;BME280;12348;42.710;23.378;2023-04-03T08:16:13;94487.34;;;14.06;74.45
20077;BME280;12348;42.710;23.378;2023-04-03T08:18:42;94475.38;;;13.77;75.04
20077;BME280;12348;42.710;23.378;2023-04-03T08:21:10;94478.13;;;14.28;74.61
20077;BME280;12348;42.710;23.378;2023-04-03T08:23:38;94475.63;;;14.23;72.37
20077;BME280;12348;42.710;23.378;2023-04-03T08:26:10;94475.75;;;13.03;78.82
20077;BME280;12348;42.710;23.378;2023-04-03T08:28:39;94474.28;;;13.14;76.27
20077;BME280;12348;42.710;23.378;2023-04-03T08:31:19;94473.03;;;13.03;77.79
20077;BME280;12348;42.710;23.378;2023-04-03T08:33:47;94470.69;;;12.84;80.31
20077;BME280;12348;42.710;23.378;2023-04-03T08:36:20;94482.41;;;12.01;87.33
20077;BME280;12348;42.710;23.378;2023-04-03T08:38:47;94485.09;;;11.93;86.08
20077;BME280;12348;42.710;23.378;2023-04-03T08:41:20;94477.19;;;11.65;89.97
20077;BME280;12348;42.710;23.378;2023-04-03T08:44:03;94460.81;;;11.93;88.69
20077;BME280;12348;42.710;23.378;2023-04-03T08:46:46;94451.38;;;11.81;89.63
20077;BME280;12348;42.710;23.378;2023-04-03T08:49:21;94461.81;;;12.49;86.56
20077;BME280;12348;42.710;23.378;2023-04-03T08:51:50;94453.38;;;12.07;85.20
20077;BME280;12348;42.710;23.378;2023-04-03T08:54:23;94457.78;;;11.85;86.39
20077;BME280;12348;42.710;23.378;2023-04-03T08:56:54;94455.47;;;12.45;84.73
20077;BME280;12348;42.710;23.378;2023-04-03T08:59:27;94450.06;;;12.45;85.07
20077;BME280;12348;42.710;23.378;2023-04-03T09:01:56;94453.06;;;12.17;87.03
20077;BME280;12348;42.710;23.378;2023-04-03T09:04:25;94445.13;;;12.81;83.34
20077;BME280;12348;42.710;23.378;2023-04-03T09:06:55;94443.69;;;12.58;82.41
20077;BME280;12348;42.710;23.378;2023-04-03T09:09:31;94441.84;;;13.23;78.71
20077;BME280;12348;42.710;23.378;2023-04-03T09:12:09;94434.69;;;13.65;75.45
20077;BME280;12348;42.710;23.378;2023-04-03T09:14:44;94433.88;;;13.73;75.31
20077;BME280;12348;42.710;23.378;2023-04-03T09:17:15;94431.28;;;14.06;73.75
20077;BME280;12348;42.710;23.378;2023-04-03T09:19:54;94428.44;;;14.45;71.68
20077;BME280;12348;42.710;23.378;2023-04-03T09:22:24;94424.94;;;14.53;70.77
20077;BME280;12348;42.710;23.378;2023-04-03T09:24:56;94421.47;;;13.72;75.17
20077;BME280;12348;42.710;23.378;2023-04-03T09:27:27;94425.78;;;13.65;76.74
20077;BME280;12348;42.710;23.378;2023-04-03T09:29:55;94420.81;;;13.75;76.65
20077;BME280;12348;42.710;23.378;2023-04-03T09:32:26;94409.75;;;13.89;75.07
20077;BME280;12348;42.710;23.378;2023-04-03T09:34:55;94412.25;;;13.35;75.84
20077;BME280;12348;42.710;23.378;2023-04-03T09:37:38;94405.16;;;13.51;76.79
20077;BME280;12348;42.710;23.378;2023-04-03T09:40:12;94408.78;;;13.64;75.22
20077;BME280;12348;42.710;23.378;2023-04-03T09:42:56;94396.34;;;14.14;74.81
20077;BME280;12348;42.710;23.378;2023-04-03T09:45:25;94402.75;;;14.30;73.02
20077;BME280;12348;42.710;23.378;2023-04-03T09:48:05;94406.78;;;14.03;74.14
20077;BME280;12348;42.710;23.378;2023-04-03T09:50:33;94395.97;;;14.03;75.27
20077;BME280;12348;42.710;23.378;2023-04-03T09:53:05;94393.53;;;14.10;74.97
20077;BME280;12348;42.710;23.378;2023-04-03T09:55:41;94392.84;;;13.92;74.86
20077;BME280;12348;42.710;23.378;2023-04-03T09:58:24;94388.31;;;14.05;75.08
20077;BME280;12348;42.710;23.378;2023-04-03T10:00:55;94385.00;;;14.20;73.60
20077;BME280;12348;42.710;23.378;2023-04-03T10:03:25;94389.47;;;13.95;74.07
20077;BME280;12348;42.710;23.378;2023-04-03T10:05:53;94396.88;;;13.56;76.07
20077;BME280;12348;42.710;23.378;2023-04-03T10:08:23;94385.84;;;13.41;77.69
20077;BME280;12348;42.710;23.378;2023-04-03T10:11:11;94385.16;;;12.97;80.94
20077;BME280;12348;42.710;23.378;2023-04-03T10:13:55;94386.19;;;12.57;83.11
20077;BME280;12348;42.710;23.378;2023-04-03T10:16:27;94379.69;;;12.67;82.95
20077;BME280;12348;42.710;23.378;2023-04-03T10:19:29;94378.78;;;12.37;84.74
20077;BME280;12348;42.710;23.378;2023-04-03T10:22:00;94374.50;;;12.10;88.41
20077;BME280;12348;42.710;23.378;2023-04-03T10:24:37;94372.56;;;12.02;90.79
20077;BME280;12348;42.710;23.378;2023-04-03T10:27:12;94380.03;;;11.87;91.28
20077;BME280;12348;42.710;23.378;2023-04-03T10:29:47;94367.19;;;11.93;91.25
20077;BME280;12348;42.710;23.378;2023-04-03T10:32:29;94368.59;;;11.91;90.82
20077;BME280;12348;42.710;23.378;2023-04-03T10:35:05;94364.81;;;11.92;90.10
20077;BME280;12348;42.710;23.378;2023-04-03T10:37:46;94359.56;;;12.21;89.12
20077;BME280;12348;42.710;23.378;2023-04-03T10:40:24;94359.69;;;12.25;88.45
20077;BME280;12348;42.710;23.378;2023-04-03T10:43:01;94355.28;;;12.29;88.65
20077;BME280;12348;42.710;23.378;2023-04-03T10:45:37;94351.63;;;12.33;89.36
20077;BME280;12348;42.710;23.378;2023-04-03T10:48:16;94348.28;;;12.19;90.47
20077;BME280;12348;42.710;23.378;2023-04-03T10:50:51;94335.72;;;12.32;90.77
20077;BME280;12348;42.710;23.378;2023-04-03T10:53:27;94341.56;;;12.60;88.71
20077;BME280;12348;42.710;23.378;2023-04-03T10:56:03;94339.69;;;12.34;88.87
20077;BME280;12348;42.710;23.378;2023-04-03T10:58:39;94340.47;;;12.52;89.40
20077;BME280;12348;42.710;23.378;2023-04-03T11:01:10;94338.59;;;12.27;89.92
20077;BME280;12348;42.710;23.378;2023-04-03T11:03:40;94342.41;;;12.34;89.55
20077;BME280;12348;42.710;23.378;2023-04-03T11:06:10;94340.94;;;12.46;91.09
20077;BME280;12348;42.710;23.378;2023-04-03T11:08:42;94346.84;;;12.13;89.42
20077;BME280;12348;42.710;23.378;2023-04-03T11:11:13;94352.09;;;11.92;89.91
20077;BME280;12348;42.710;23.378;2023-04-03T11:13:46;94354.78;;;12.27;89.82
20077;BME280;12348;42.710;23.378;2023-04-03T11:16:21;94353.53;;;11.89;92.79
20077;BME280;12348;42.710;23.378;2023-04-03T11:18:52;94356.81;;;11.69;96.68
20077;BME280;12348;42.710;23.378;2023-04-03T11:21:25;94354.97;;;11.30;100.00
20077;BME280;12348;42.710;23.378;2023-04-03T11:23:56;94361.75;;;11.19;100.00
20077;BME280;12348;42.710;23.378;2023-04-03T11:26:29;94356.53;;;10.82;100.00
20077;BME280;12348;42.710;23.378;2023-04-03T11:29:00;94355.72;;;10.73;100.00
20077;BME280;12348;42.710;23.378;2023-04-03T11:31:43;94352.88;;;11.09;100.00
20077;BME280;12348;42.710;23.378;2023-04-03T11:34:25;94355.38;;;11.06;100.00
20077;BME280;12348;42.710;23.378;2023-04-03T11:36:55;94348.97;;;10.93;100.00
20077;BME280;12348;42.710;23.378;2023-04-03T11:39:26;94363.28;;;10.71;100.00
20077;BME280;12348;42.710;23.378;2023-04-03T11:41:55;94346.69;;;10.47;100.00
20077;BME280;12348;42.710;23.378;2023-04-03T11:44:30;94353.63;;;10.39;100.00
20077;BME280;12348;42.710;23.378;2023-04-03T11:47:00;94351.78;;;10.26;100.00
20077;BME280;12348;42.710;23.378;2023-04-03T11:49:57;94347.44;;;10.16;100.00
20077;BME280;12348;42.710;23.378;2023-04-03T11:52:56;94354.75;;;10.24;100.00
20077;BME280;12348;42.710;23.378;2023-04-03T11:55:53;94348.13;;;10.08;100.00
20077;BME280;12348;42.710;23.378;2023-04-03T11:58:23;94350.16;;;10.02;100.00
20077;BME280;12348;42.710;23.378;2023-04-03T12:01:07;94359.19;;;9.84;100.00
20077;BME280;12348;42.710;23.378;2023-04-03T12:10:13;94359.59;;;9.77;100.00
20077;BME280;12348;42.710;23.378;2023-04-03T12:12:42;94372.53;;;9.39;100.00
20077;BME280;12348;42.710;23.378;2023-04-03T12:15:22;94369.88;;;9.11;100.00
20077;BME280;12348;42.710;23.378;2023-04-03T12:17:49;94368.66;;;9.17;100.00
20077;BME280;12348;42.710;23.378;2023-04-03T12:20:57;94369.06;;;9.38;100.00
20077;BME280;12348;42.710;23.378;2023-04-03T12:23:30;94359.88;;;9.26;100.00
20077;BME280;12348;42.710;23.378;2023-04-03T12:26:06;94343.22;;;9.15;100.00
20077;BME280;12348;42.710;23.378;2023-04-03T12:28:48;94352.06;;;9.02;100.00
20077;BME280;12348;42.710;23.378;2023-04-03T12:31:15;94347.66;;;8.92;100.00
20077;BME280;12348;42.710;23.378;2023-04-03T12:33:58;94356.81;;;8.77;100.00
20077;BME280;12348;42.710;23.378;2023-04-03T12:36:36;94342.63;;;8.90;100.00
20077;BME280;12348;42.710;23.378;2023-04-03T12:39:20;94358.63;;;8.82;100.00
20077;BME280;12348;42.710;23.378;2023-04-03T12:41:58;94344.59;;;8.71;100.00
20077;BME280;12348;42.710;23.378;2023-04-03T12:44:48;94339.03;;;8.67;100.00
20077;BME280;12348;42.710;23.378;2023-04-03T12:47:28;94326.28;;;8.59;100.00
20077;BME280;12348;42.710;23.378;2023-04-03T12:49:59;94337.09;;;8.54;100.00
20077;BME280;12348;42.710;23.378;2023-04-03T12:52:37;94330.44;;;8.38;100.00
20077;BME280;12348;42.710;23.378;2023-04-03T12:55:15;94321.00;;;8.40;100.00
20077;BME280;12348;42.710;23.378;2023-04-03T12:57:44;94324.00;;;8.53;100.00
20077;BME280;12348;42.710;23.378;2023-04-03T13:00:31;94321.31;;;8.53;100.00
20077;BME280;12348;42.710;23.378;2023-04-03T13:03:01;94320.00;;;8.50;100.00
20077;BME280;12348;42.710;23.378;2023-04-03T13:05:29;94321.19;;;8.44;100.00
20077;BME280;12348;42.710;23.378;2023-04-03T13:08:01;94315.41;;;8.37;100.00
20077;BME280;12348;42.710;23.378;2023-04-03T13:10:29;94326.41;;;8.35;100.00
20077;BME280;12348;42.710;23.378;2023-04-03T13:13:06;94329.63;;;8.37;100.00
20077;BME280;12348;42.710;23.378;2023-04-03T13:15:41;94325.28;;;8.41;100.00